PWSweather.com
Personal Weather Stations
Station Observations
NANKRWX
Nanaimo, BC V9R 6W6

Nanaimo, BC V9R 6W6

Lat: 49.168, Lon: -124.036

Elevation: 637

Station Type: Davis Vantage Pro 2

http://weathercat.ca

Latest ConditionsUpdated 3:10:08 PM PST Sunday, Dec 16, 2018
Currently Today's Max Today's Min Today's Average
Temperature 46.5°F8.1°C 47.3°F8.5°C 40.0°F4.4°C 43.1°F6.2°C
Dew Point 44.3°F6.8°C 45.1°F7.3°C 37.6°F3.1°C 40.9°F4.9°C
Winds Calm Calm 6.0 mph -9.7 kmh - - 0.4 mph 0.6 kmh
Wind Gusts -- 11.0 mph17.7 kmh - -
Humidity 92% 92% 90% 92%
Pressure 29.54 in1000.3 mb 29.74 in1007.1 mb 29.52 in999.7 mb -
Hour Temp Dew Point Humidity Winds Wind Gusts Pressure Precip Precip Rate Daily Precip Total
03:10 PM 46.5°F8.1°C 44.3°F6.8°C 92% Calm Calm -- 29.54 in1000.3 mb 0.00 in0.0 mm 0.00 in0.0 mm 1.80 in45.7 mm
03:00 PM 46.5°F8.1°C 44.3°F6.8°C 92% Calm Calm 2.0 mph3.2 kmh 29.53 in1000.0 mb 0.00 in0.0 mm 0.00 in0.0 mm 1.80 in45.7 mm
02:50 PM 46.5°F8.1°C 44.3°F6.8°C 92% Calm Calm 4.0 mph6.4 kmh 29.53 in1000.0 mb 0.00 in0.0 mm 0.00 in0.0 mm 1.80 in45.7 mm
02:40 PM 46.5°F8.1°C 44.3°F6.8°C 92% Calm Calm 1.0 mph1.6 kmh 29.52 in999.7 mb 0.00 in0.0 mm 0.00 in0.0 mm 1.80 in45.7 mm
02:30 PM 46.6°F8.1°C 44.4°F6.9°C 92% Calm Calm 4.0 mph6.4 kmh 29.53 in1000.0 mb 0.00 in0.0 mm 0.00 in0.0 mm 1.80 in45.7 mm
02:20 PM 46.7°F8.2°C 44.5°F6.9°C 92% Calm Calm -- 29.52 in999.7 mb 0.00 in0.0 mm 0.00 in0.0 mm 1.80 in45.7 mm
02:10 PM 46.7°F8.2°C 44.5°F6.9°C 92% Calm Calm 2.0 mph3.2 kmh 29.54 in1000.3 mb 0.04 in1.0 mm 0.00 in0.0 mm 1.80 in45.7 mm
02:00 PM 46.7°F8.2°C 44.5°F6.9°C 92% Calm Calm 1.0 mph1.6 kmh 29.54 in1000.3 mb 0.04 in1.0 mm 0.05 in1.3 mm 1.80 in45.7 mm
01:50 PM 46.6°F8.1°C 44.4°F6.9°C 92% Calm Calm 2.0 mph3.2 kmh 29.55 in1000.7 mb 0.00 in0.0 mm 0.00 in0.0 mm 1.76 in44.7 mm
01:40 PM 46.7°F8.2°C 44.5°F6.9°C 92% Calm Calm 1.0 mph1.6 kmh 29.55 in1000.7 mb 0.00 in0.0 mm 0.00 in0.0 mm 1.76 in44.7 mm
01:30 PM 46.6°F8.1°C 44.4°F6.9°C 92% Calm Calm 1.0 mph1.6 kmh 29.55 in1000.7 mb 0.00 in0.0 mm 0.00 in0.0 mm 1.76 in44.7 mm
01:20 PM 46.7°F8.2°C 44.5°F6.9°C 92% Calm Calm 1.0 mph1.6 kmh 29.54 in1000.3 mb 0.00 in0.0 mm 0.00 in0.0 mm 1.76 in44.7 mm
01:10 PM 47.0°F8.3°C 44.8°F7.1°C 92% Calm Calm -- 29.53 in1000.0 mb 0.00 in0.0 mm 0.00 in0.0 mm 1.76 in44.7 mm
01:00 PM 47.3°F8.5°C 45.1°F7.3°C 92% Calm Calm 1.0 mph1.6 kmh 29.54 in1000.3 mb 0.00 in0.0 mm 0.00 in0.0 mm 1.76 in44.7 mm
12:50 PM 47.1°F8.4°C 44.9°F7.2°C 92% Calm Calm -- 29.53 in1000.0 mb 0.00 in0.0 mm 0.00 in0.0 mm 1.76 in44.7 mm
12:40 PM 47.1°F8.4°C 44.9°F7.2°C 92% Calm Calm 1.0 mph1.6 kmh 29.54 in1000.3 mb 0.00 in0.0 mm 0.00 in0.0 mm 1.76 in44.7 mm
12:30 PM 46.9°F8.3°C 44.7°F7.1°C 92% 2.0 mph SE3.2 kmh SE 4.0 mph6.4 kmh 29.54 in1000.3 mb 0.00 in0.0 mm 0.00 in0.0 mm 1.76 in44.7 mm
12:20 PM 46.7°F8.2°C 44.5°F6.9°C 92% Calm Calm 6.0 mph9.7 kmh 29.54 in1000.3 mb 0.00 in0.0 mm 0.00 in0.0 mm 1.76 in44.7 mm
12:10 PM 46.6°F8.1°C 44.4°F6.9°C 92% Calm Calm 1.0 mph1.6 kmh 29.54 in1000.3 mb 0.00 in0.0 mm 0.00 in0.0 mm 1.76 in44.7 mm
12:00 PM 46.7°F8.2°C 44.5°F6.9°C 92% Calm Calm 2.0 mph3.2 kmh 29.54 in1000.3 mb 0.00 in0.0 mm 0.00 in0.0 mm 1.76 in44.7 mm
11:50 AM 46.5°F8.1°C 44.3°F6.8°C 92% Calm Calm 4.0 mph6.4 kmh 29.54 in1000.3 mb 0.00 in0.0 mm 0.00 in0.0 mm 1.76 in44.7 mm
11:40 AM 46.3°F7.9°C 44.1°F6.7°C 92% 1.0 mph SE1.6 kmh SE 2.0 mph3.2 kmh 29.54 in1000.3 mb 0.00 in0.0 mm 0.00 in0.0 mm 1.76 in44.7 mm
11:30 AM 46.2°F7.9°C 44.0°F6.7°C 92% Calm Calm 2.0 mph3.2 kmh 29.55 in1000.7 mb 0.00 in0.0 mm 0.00 in0.0 mm 1.76 in44.7 mm
11:20 AM 46.0°F7.8°C 43.8°F6.6°C 92% Calm Calm 4.0 mph6.4 kmh 29.55 in1000.7 mb 0.00 in0.0 mm 0.00 in0.0 mm 1.76 in44.7 mm
11:10 AM 45.7°F7.6°C 43.5°F6.4°C 92% Calm Calm 4.0 mph6.4 kmh 29.56 in1001.0 mb 0.00 in0.0 mm 0.00 in0.0 mm 1.76 in44.7 mm
11:00 AM 45.3°F7.4°C 43.1°F6.2°C 92% Calm Calm 6.0 mph9.7 kmh 29.56 in1001.0 mb 0.00 in0.0 mm 0.00 in0.0 mm 1.76 in44.7 mm
10:50 AM 45.0°F7.2°C 42.8°F6.0°C 92% 1.0 mph SE1.6 kmh SE 2.0 mph3.2 kmh 29.57 in1001.4 mb 0.00 in0.0 mm 0.00 in0.0 mm 1.76 in44.7 mm
10:40 AM 44.9°F7.2°C 42.7°F5.9°C 92% Calm Calm 5.0 mph8.0 kmh 29.57 in1001.4 mb 0.00 in0.0 mm 0.00 in0.0 mm 1.76 in44.7 mm
10:30 AM 44.9°F7.2°C 42.7°F5.9°C 92% Calm Calm 4.0 mph6.4 kmh 29.58 in1001.7 mb 0.00 in0.0 mm 0.00 in0.0 mm 1.76 in44.7 mm
10:20 AM 44.8°F7.1°C 42.6°F5.9°C 92% Calm Calm 4.0 mph6.4 kmh 29.57 in1001.4 mb 0.00 in0.0 mm 0.00 in0.0 mm 1.76 in44.7 mm
10:10 AM 44.8°F7.1°C 42.6°F5.9°C 92% Calm Calm 2.0 mph3.2 kmh 29.57 in1001.4 mb 0.00 in0.0 mm 0.00 in0.0 mm 1.76 in44.7 mm
10:00 AM 44.6°F7.0°C 42.4°F5.8°C 92% 4.0 mph SE6.4 kmh SE 4.0 mph6.4 kmh 29.58 in1001.7 mb 0.05 in1.3 mm 0.00 in0.0 mm 1.76 in44.7 mm
09:50 AM 44.5°F6.9°C 42.3°F5.7°C 92% 3.0 mph S4.8 kmh S 5.0 mph8.0 kmh 29.58 in1001.7 mb 0.10 in2.5 mm 0.06 in1.5 mm 1.76 in44.7 mm
09:40 AM 44.3°F6.8°C 42.1°F5.6°C 92% Calm Calm 4.0 mph6.4 kmh 29.59 in1002.0 mb 0.09 in2.3 mm 0.54 in13.7 mm 1.75 in44.5 mm
09:30 AM 44.1°F6.7°C 41.9°F5.5°C 92% 1.0 mph S1.6 kmh S 3.0 mph4.8 kmh 29.59 in1002.0 mb 0.00 in0.0 mm 0.00 in0.0 mm 1.66 in42.2 mm
09:20 AM 43.8°F6.6°C 41.6°F5.3°C 92% Calm Calm 2.0 mph3.2 kmh 29.59 in1002.0 mb 0.06 in1.5 mm 0.00 in0.0 mm 1.66 in42.2 mm
09:10 AM 43.7°F6.5°C 41.5°F5.3°C 92% Calm Calm 1.0 mph1.6 kmh 29.58 in1001.7 mb 0.09 in2.3 mm 0.00 in0.0 mm 1.66 in42.2 mm
09:00 AM 43.4°F6.3°C 41.2°F5.1°C 92% 1.0 mph SSW1.6 kmh SSW 4.0 mph6.4 kmh 29.58 in1001.7 mb 0.14 in3.6 mm 0.07 in1.8 mm 1.66 in42.2 mm
08:50 AM 43.2°F6.2°C 41.0°F5.0°C 92% Calm Calm 1.0 mph1.6 kmh 29.58 in1001.7 mb 0.08 in2.0 mm 0.00 in0.0 mm 1.60 in40.6 mm
08:40 AM 43.0°F6.1°C 40.8°F4.9°C 92% Calm Calm 1.0 mph1.6 kmh 29.57 in1001.4 mb 0.09 in2.3 mm 0.12 in3.0 mm 1.60 in40.6 mm
08:30 AM 42.9°F6.1°C 40.7°F4.8°C 92% Calm Calm -- 29.57 in1001.4 mb 0.07 in1.8 mm 0.00 in0.0 mm 1.58 in40.1 mm
08:20 AM 42.9°F6.1°C 40.7°F4.8°C 92% Calm Calm 1.0 mph1.6 kmh 29.57 in1001.4 mb 0.09 in2.3 mm 0.00 in0.0 mm 1.58 in40.1 mm
08:10 AM 42.9°F6.1°C 40.7°F4.8°C 92% Calm Calm 2.0 mph3.2 kmh 29.58 in1001.7 mb 0.17 in4.3 mm 0.24 in6.1 mm 1.58 in40.1 mm
08:00 AM 42.8°F6.0°C 40.6°F4.8°C 92% Calm Calm 1.0 mph1.6 kmh 29.58 in1001.7 mb 0.13 in3.3 mm 0.00 in0.0 mm 1.54 in39.1 mm
07:50 AM 42.7°F5.9°C 40.5°F4.7°C 92% Calm Calm 2.0 mph3.2 kmh 29.58 in1001.7 mb 0.18 in4.6 mm 0.00 in0.0 mm 1.54 in39.1 mm
07:40 AM 42.7°F5.9°C 40.5°F4.7°C 92% Calm Calm -- 29.58 in1001.7 mb 0.21 in5.3 mm 0.48 in12.2 mm 1.54 in39.1 mm
07:30 AM 42.5°F5.8°C 40.3°F4.6°C 92% Calm Calm 2.0 mph3.2 kmh 29.58 in1001.7 mb 0.13 in3.3 mm 0.00 in0.0 mm 1.46 in37.1 mm
07:20 AM 42.4°F5.8°C 40.3°F4.6°C 92% Calm Calm -- 29.58 in1001.7 mb 0.15 in3.8 mm 0.24 in6.1 mm 1.46 in37.1 mm
07:10 AM 42.3°F5.7°C 40.2°F4.6°C 92% Calm Calm 1.0 mph1.6 kmh 29.58 in1001.7 mb 0.11 in2.8 mm 0.00 in0.0 mm 1.42 in36.1 mm
07:00 AM 42.2°F5.7°C 40.1°F4.5°C 92% Calm Calm 1.0 mph1.6 kmh 29.58 in1001.7 mb 0.26 in6.6 mm 0.16 in4.1 mm 1.42 in36.1 mm
06:50 AM 42.0°F5.6°C 39.9°F4.4°C 92% Calm Calm 2.0 mph3.2 kmh 29.58 in1001.7 mb 0.13 in3.3 mm 0.36 in9.1 mm 1.29 in32.8 mm
06:40 AM 42.0°F5.6°C 39.9°F4.4°C 92% Calm Calm -- 29.58 in1001.7 mb 0.07 in1.8 mm 0.00 in0.0 mm 1.23 in31.2 mm
06:30 AM 41.8°F5.4°C 39.7°F4.3°C 92% Calm Calm 4.0 mph6.4 kmh 29.58 in1001.7 mb 0.14 in3.6 mm 0.00 in0.0 mm 1.23 in31.2 mm
06:20 AM 41.8°F5.4°C 39.7°F4.3°C 92% Calm Calm 2.0 mph3.2 kmh 29.58 in1001.7 mb 0.18 in4.6 mm 0.42 in10.7 mm 1.23 in31.2 mm
06:10 AM 41.7°F5.4°C 39.3°F4.1°C 91% Calm Calm 4.0 mph6.4 kmh 29.58 in1001.7 mb 0.11 in2.8 mm 0.00 in0.0 mm 1.16 in29.5 mm
06:00 AM 41.6°F5.3°C 39.2°F4.0°C 91% Calm Calm 5.0 mph8.0 kmh 29.58 in1001.7 mb 0.16 in4.1 mm 0.08 in2.0 mm 1.16 in29.5 mm
05:50 AM 41.5°F5.3°C 39.4°F4.1°C 92% 1.0 mph SE1.6 kmh SE 4.0 mph6.4 kmh 29.58 in1001.7 mb 0.09 in2.3 mm 0.12 in3.0 mm 1.09 in27.7 mm
05:40 AM 41.4°F5.2°C 39.3°F4.1°C 92% Calm Calm 4.0 mph6.4 kmh 29.58 in1001.7 mb 0.07 in1.8 mm 0.00 in0.0 mm 1.07 in27.2 mm
05:30 AM 41.3°F5.2°C 38.9°F3.8°C 91% Calm Calm 2.0 mph3.2 kmh 29.59 in1002.0 mb 0.13 in3.3 mm 0.12 in3.0 mm 1.07 in27.2 mm
05:20 AM 41.2°F5.1°C 38.8°F3.8°C 91% Calm Calm 4.0 mph6.4 kmh 29.59 in1002.0 mb 0.11 in2.8 mm 0.00 in0.0 mm 1.05 in26.7 mm
05:10 AM 41.1°F5.1°C 38.7°F3.7°C 91% 1.0 mph SSW1.6 kmh SSW 5.0 mph8.0 kmh 29.59 in1002.0 mb 0.12 in3.0 mm 0.06 in1.5 mm 1.05 in26.7 mm
05:00 AM 41.1°F5.1°C 38.7°F3.7°C 91% Calm Calm 4.0 mph6.4 kmh 29.59 in1002.0 mb 0.11 in2.8 mm 0.00 in0.0 mm 1.04 in26.4 mm
04:50 AM 41.1°F5.1°C 38.7°F3.7°C 91% 6.0 mph NNE9.7 kmh NNE 6.0 mph9.7 kmh 29.61 in1002.7 mb 0.13 in3.3 mm 0.00 in0.0 mm 1.04 in26.4 mm
04:40 AM 41.1°F5.1°C 38.7°F3.7°C 91% Calm Calm 11.0 mph17.7 kmh 29.61 in1002.7 mb 0.20 in5.1 mm 0.18 in4.6 mm 1.04 in26.4 mm
04:30 AM 41.1°F5.1°C 38.7°F3.7°C 91% 1.0 mph ESE1.6 kmh ESE 11.0 mph17.7 kmh 29.62 in1003.0 mb 0.17 in4.3 mm 0.18 in4.6 mm 1.01 in25.7 mm
04:20 AM 41.0°F5.0°C 38.6°F3.7°C 91% Calm Calm 7.0 mph11.3 kmh 29.62 in1003.0 mb 0.14 in3.6 mm 0.00 in0.0 mm 0.98 in24.9 mm
04:10 AM 40.9°F4.9°C 38.5°F3.6°C 91% 2.0 mph SW3.2 kmh SW 5.0 mph8.0 kmh 29.63 in1003.4 mb 0.19 in4.8 mm 0.00 in0.0 mm 0.98 in24.9 mm
04:00 AM 40.7°F4.8°C 38.3°F3.5°C 91% 1.0 mph SE1.6 kmh SE 2.0 mph3.2 kmh 29.63 in1003.4 mb 0.31 in7.9 mm 0.00 in0.0 mm 0.98 in24.9 mm
03:50 AM 40.6°F4.8°C 38.2°F3.4°C 91% Calm Calm 3.0 mph4.8 kmh 29.63 in1003.4 mb 0.37 in9.4 mm 0.54 in13.7 mm 0.98 in24.9 mm
03:40 AM 40.4°F4.7°C 38.0°F3.3°C 91% Calm Calm 2.0 mph3.2 kmh 29.64 in1003.7 mb 0.28 in7.1 mm 0.00 in0.0 mm 0.89 in22.6 mm
03:30 AM 40.4°F4.7°C 38.0°F3.3°C 91% Calm Calm 5.0 mph8.0 kmh 29.64 in1003.7 mb 0.54 in13.7 mm 1.80 in45.7 mm 0.89 in22.6 mm
03:20 AM 40.3°F4.6°C 37.9°F3.3°C 91% Calm Calm 4.0 mph6.4 kmh 29.64 in1003.7 mb 0.24 in6.1 mm 0.42 in10.7 mm 0.59 in15.0 mm
03:10 AM 40.2°F4.6°C 37.8°F3.2°C 91% 1.0 mph SW1.6 kmh SW 4.0 mph6.4 kmh 29.65 in1004.1 mb 0.17 in4.3 mm 0.24 in6.1 mm 0.52 in13.2 mm
03:00 AM 40.2°F4.6°C 37.8°F3.2°C 91% 2.0 mph WNW3.2 kmh WNW 7.0 mph11.3 kmh 29.66 in1004.4 mb 0.13 in3.3 mm 0.00 in0.0 mm 0.48 in12.2 mm
02:50 AM 40.1°F4.5°C 37.7°F3.2°C 91% 1.0 mph WNW1.6 kmh WNW 4.0 mph6.4 kmh 29.67 in1004.7 mb 0.24 in6.1 mm 0.54 in13.7 mm 0.48 in12.2 mm
02:40 AM 40.1°F4.5°C 37.7°F3.2°C 91% 3.0 mph SW4.8 kmh SW 6.0 mph9.7 kmh 29.68 in1005.1 mb 0.15 in3.8 mm 0.12 in3.0 mm 0.39 in9.9 mm
02:30 AM 40.0°F4.4°C 37.6°F3.1°C 91% Calm Calm 4.0 mph6.4 kmh 29.68 in1005.1 mb 0.13 in3.3 mm 0.06 in1.5 mm 0.37 in9.4 mm
02:20 AM 40.0°F4.4°C 37.6°F3.1°C 91% 1.0 mph SW1.6 kmh SW 5.0 mph8.0 kmh 29.68 in1005.1 mb 0.12 in3.0 mm 0.00 in0.0 mm 0.36 in9.1 mm
02:10 AM 40.1°F4.5°C 37.7°F3.2°C 91% Calm Calm 8.0 mph12.9 kmh 29.68 in1005.1 mb 0.17 in4.3 mm 0.12 in3.0 mm 0.36 in9.1 mm
02:00 AM 40.3°F4.6°C 37.9°F3.3°C 91% 1.0 mph SE1.6 kmh SE 6.0 mph9.7 kmh 29.69 in1005.4 mb 0.15 in3.8 mm 0.00 in0.0 mm 0.34 in8.6 mm
01:50 AM 40.6°F4.8°C 38.2°F3.4°C 91% Calm Calm 6.0 mph9.7 kmh 29.69 in1005.4 mb 0.28 in7.1 mm 0.24 in6.1 mm 0.34 in8.6 mm
01:40 AM 40.6°F4.8°C 38.2°F3.4°C 91% Calm Calm 7.0 mph11.3 kmh 29.69 in1005.4 mb 0.24 in6.1 mm 0.36 in9.1 mm 0.30 in7.6 mm
01:30 AM 40.6°F4.8°C 38.2°F3.4°C 91% Calm Calm 3.0 mph4.8 kmh 29.69 in1005.4 mb 0.18 in4.6 mm 0.30 in7.6 mm 0.24 in6.1 mm
01:20 AM 40.5°F4.7°C 38.1°F3.4°C 91% 1.0 mph SSW1.6 kmh SSW 4.0 mph6.4 kmh 29.70 in1005.8 mb 0.13 in3.3 mm 0.00 in0.0 mm 0.19 in4.8 mm
01:10 AM 40.5°F4.7°C 38.1°F3.4°C 91% 1.0 mph SSW1.6 kmh SSW 4.0 mph6.4 kmh 29.70 in1005.8 mb 0.15 in3.8 mm 0.12 in3.0 mm 0.19 in4.8 mm
01:00 AM 40.5°F4.7°C 38.1°F3.4°C 91% Calm Calm 8.0 mph12.9 kmh 29.71 in1006.1 mb 0.13 in3.3 mm 0.05 in1.3 mm 0.17 in4.3 mm
12:50 AM 40.5°F4.7°C 38.1°F3.4°C 91% Calm Calm 5.0 mph8.0 kmh 29.71 in1006.1 mb 0.09 in2.3 mm 0.00 in0.0 mm 0.13 in3.3 mm
12:40 AM 40.5°F4.7°C 38.1°F3.4°C 91% Calm Calm 9.0 mph14.5 kmh 29.72 in1006.4 mb 0.13 in3.3 mm 0.00 in0.0 mm 0.13 in3.3 mm
12:30 AM 40.5°F4.7°C 38.1°F3.4°C 91% 2.0 mph SW3.2 kmh SW 5.0 mph8.0 kmh 29.72 in1006.4 mb 0.13 in3.3 mm 0.18 in4.6 mm 0.13 in3.3 mm
12:20 AM 40.5°F4.7°C 37.8°F3.2°C 90% Calm Calm 6.0 mph9.7 kmh 29.73 in1006.8 mb 0.10 in2.5 mm 0.06 in1.5 mm 0.10 in2.5 mm
12:10 AM 40.4°F4.7°C 37.7°F3.2°C 90% Calm Calm 1.0 mph1.6 kmh 29.73 in1006.8 mb 0.09 in2.3 mm 0.06 in1.5 mm 0.09 in2.3 mm
12:00 AM 40.4°F4.7°C 37.7°F3.2°C 90% Calm Calm 1.0 mph1.6 kmh 29.74 in1007.1 mb 0.08 in2.0 mm 0.00 in0.0 mm 0.08 in2.0 mm